createdAt,value
2023-04-03T00:00:41.496Z,3.25
2023-04-03T00:03:21.990Z,3.22
2023-04-03T00:05:54.156Z,3.17
2023-04-03T00:08:26.553Z,3.15
2023-04-03T00:10:59.047Z,3.15
2023-04-03T00:13:31.155Z,3.18
2023-04-03T00:16:04.414Z,3.20
2023-04-03T00:18:36.613Z,3.23
2023-04-03T00:21:10.499Z,3.25
2023-04-03T00:23:42.808Z,3.22
2023-04-03T00:26:14.912Z,3.20
2023-04-03T00:28:47.104Z,3.13
2023-04-03T00:31:19.692Z,3.10
2023-04-03T00:33:52.422Z,3.05
2023-04-03T00:36:24.679Z,3.03
2023-04-03T00:38:57.140Z,3.03
2023-04-03T00:41:29.330Z,3.04
2023-04-03T00:44:01.612Z,3.03
2023-04-03T00:46:34.110Z,3.00
2023-04-03T00:49:06.290Z,2.97
2023-04-03T00:51:38.836Z,2.93
2023-04-03T00:54:11.971Z,2.91
2023-04-03T00:56:45.319Z,2.90
2023-04-03T00:59:23.236Z,2.86
2023-04-03T01:01:57.149Z,2.82
2023-04-03T01:04:34.583Z,2.79
2023-04-03T01:07:10.635Z,2.76
2023-04-03T01:09:44.298Z,2.75
2023-04-03T01:12:22.166Z,2.73
2023-04-03T01:14:57.180Z,2.74
2023-04-03T01:17:35.749Z,2.72
2023-04-03T01:20:39.426Z,2.69
2023-04-03T01:23:32.925Z,2.67
2023-04-03T01:26:06.421Z,2.65
2023-04-03T01:28:40.148Z,2.60
2023-04-03T01:31:21.335Z,2.56
2023-04-03T01:33:53.890Z,2.53
2023-04-03T01:36:29.134Z,2.52
2023-04-03T01:39:02.423Z,2.52
2023-04-03T01:41:34.862Z,2.48
2023-04-03T01:44:14.341Z,2.47
2023-04-03T01:46:46.609Z,2.46
2023-04-03T01:49:18.684Z,2.43
2023-04-03T01:51:50.722Z,2.37
2023-04-03T01:54:22.959Z,2.36
2023-04-03T01:56:55.000Z,2.34
2023-04-03T01:59:27.210Z,2.32
2023-04-03T02:01:59.347Z,2.26
2023-04-03T02:04:31.443Z,2.24
2023-04-03T02:07:03.655Z,2.21
2023-04-03T02:09:36.126Z,2.21
2023-04-03T02:12:08.664Z,2.19
2023-04-03T02:14:40.834Z,2.19
2023-04-03T02:17:17.597Z,2.22
2023-04-03T02:19:49.927Z,2.22
2023-04-03T02:22:22.061Z,2.18
2023-04-03T02:24:54.118Z,2.17
2023-04-03T02:27:26.322Z,2.10
2023-04-03T02:29:58.363Z,2.06
2023-04-03T02:32:30.705Z,1.96
2023-04-03T02:35:03.516Z,1.88
2023-04-03T02:37:35.778Z,1.80
2023-04-03T02:40:10.582Z,1.72
2023-04-03T02:42:42.646Z,1.62
2023-04-03T02:45:14.990Z,1.54
2023-04-03T02:47:47.849Z,1.45
2023-04-03T02:50:19.900Z,1.41
2023-04-03T02:52:51.859Z,1.34
2023-04-03T02:55:24.175Z,1.32
2023-04-03T02:57:56.662Z,1.30
2023-04-03T03:00:28.727Z,1.22
2023-04-03T03:03:00.951Z,1.12
2023-04-03T03:05:33.566Z,1.02
2023-04-03T03:08:05.681Z,0.95
2023-04-03T03:10:38.183Z,0.88
2023-04-03T03:13:10.515Z,0.82
2023-04-03T03:15:42.638Z,0.76
2023-04-03T03:18:14.782Z,0.69
2023-04-03T03:20:46.791Z,0.66
2023-04-03T03:23:19.370Z,0.65
2023-04-03T03:25:51.678Z,0.68
2023-04-03T03:28:23.970Z,0.70
2023-04-03T03:30:56.239Z,0.71
2023-04-03T03:33:29.182Z,0.69
2023-04-03T03:36:01.961Z,0.64
2023-04-03T03:38:35.023Z,0.63
2023-04-03T03:41:07.340Z,0.59
2023-04-03T03:43:40.199Z,0.57
2023-04-03T03:46:12.743Z,0.52
2023-04-03T03:48:45.087Z,0.50
2023-04-03T03:51:17.841Z,0.48
2023-04-03T03:53:50.036Z,0.44
2023-04-03T03:56:23.845Z,0.41
2023-04-03T03:58:57.348Z,0.43
2023-04-03T04:01:31.749Z,0.43
2023-04-03T04:04:04.404Z,0.41
2023-04-03T04:06:36.881Z,0.41
2023-04-03T04:09:10.903Z,0.35
2023-04-03T04:11:43.155Z,0.31
2023-04-03T04:14:16.334Z,0.29
2023-04-03T04:16:48.958Z,0.24
2023-04-03T04:19:24.906Z,0.20
2023-04-03T04:21:57.029Z,0.15
2023-04-03T04:24:29.542Z,0.12
2023-04-03T04:27:02.111Z,0.12
2023-04-03T04:29:37.574Z,0.15
2023-04-03T04:32:11.257Z,0.16
2023-04-03T04:34:43.319Z,0.18
2023-04-03T04:37:16.172Z,0.18
2023-04-03T04:39:48.144Z,0.11
2023-04-03T04:42:20.407Z,0.08
2023-04-03T04:44:53.329Z,0.05
2023-04-03T04:47:25.546Z,-0.01
2023-04-03T04:49:58.322Z,-0.05
2023-04-03T04:52:31.102Z,-0.08
2023-04-03T04:55:03.360Z,-0.09
2023-04-03T04:57:36.378Z,-0.07
2023-04-03T05:00:11.996Z,-0.04
2023-04-03T05:02:44.490Z,-0.06
2023-04-03T05:05:17.220Z,-0.05
2023-04-03T05:07:49.321Z,-0.06
2023-04-03T05:10:21.689Z,-0.03
2023-04-03T05:12:53.711Z,0.03
2023-04-03T05:15:26.530Z,0.09
2023-04-03T05:17:58.825Z,0.13
2023-04-03T05:20:31.241Z,0.21
2023-04-03T05:23:03.576Z,0.28
2023-04-03T05:25:37.385Z,0.39
2023-04-03T05:28:11.223Z,0.51
2023-04-03T05:30:43.935Z,0.61
2023-04-03T05:33:16.416Z,0.73
2023-04-03T05:35:52.880Z,0.83
2023-04-03T05:38:30.176Z,0.94
2023-04-03T05:41:03.138Z,1.00
2023-04-03T05:43:38.949Z,1.04
2023-04-03T05:46:19.643Z,1.10
2023-04-03T05:48:52.457Z,1.15
2023-04-03T05:51:36.230Z,1.23
2023-04-03T05:54:26.582Z,1.32
2023-04-03T05:57:02.447Z,1.40
2023-04-03T05:59:34.962Z,1.51
2023-04-03T06:02:07.296Z,1.59
2023-04-03T06:04:39.548Z,1.68
2023-04-03T06:07:16.765Z,1.74
2023-04-03T06:09:48.945Z,1.82
2023-04-03T06:12:22.279Z,1.91
2023-04-03T06:14:54.463Z,1.91
2023-04-03T06:17:28.174Z,1.99
2023-04-03T06:20:00.672Z,2.08
2023-04-03T06:22:32.960Z,2.12
2023-04-03T06:25:08.619Z,2.22
2023-04-03T06:27:41.517Z,2.29
2023-04-03T06:30:15.163Z,2.38
2023-04-03T06:32:47.482Z,2.54
2023-04-03T06:35:19.955Z,2.72
2023-04-03T06:37:52.050Z,2.89
2023-04-03T06:40:27.592Z,3.00
2023-04-03T06:42:59.930Z,3.16
2023-04-03T06:45:32.401Z,3.27
2023-04-03T06:48:04.762Z,3.39
2023-04-03T06:50:37.309Z,3.51
2023-04-03T06:53:09.607Z,3.57
2023-04-03T06:55:42.420Z,3.70
2023-04-03T06:58:14.941Z,3.69
2023-04-03T07:00:48.449Z,3.77
2023-04-03T07:03:20.611Z,3.84
2023-04-03T07:05:55.496Z,3.92
2023-04-03T07:08:27.549Z,3.97
2023-04-03T07:10:59.595Z,4.05
2023-04-03T07:13:31.651Z,4.12
2023-04-03T07:16:05.109Z,4.19
2023-04-03T07:18:38.462Z,4.32
2023-04-03T07:21:10.659Z,4.43
2023-04-03T07:23:42.844Z,4.52
2023-04-03T07:26:14.874Z,4.64
2023-04-03T07:28:48.650Z,4.81
2023-04-03T07:31:21.747Z,4.96
2023-04-03T07:33:53.853Z,5.09
2023-04-03T07:36:26.364Z,5.18
2023-04-03T07:38:58.807Z,5.29
2023-04-03T07:41:31.460Z,5.38
2023-04-03T07:44:03.629Z,5.59
2023-04-03T07:46:35.792Z,5.74
2023-04-03T07:49:08.156Z,5.82
2023-04-03T07:51:40.921Z,5.90
2023-04-03T07:54:13.327Z,5.94
2023-04-03T07:56:46.181Z,5.95
2023-04-03T07:59:18.159Z,5.96
2023-04-03T08:01:50.404Z,6.02
2023-04-03T08:04:22.850Z,6.13
2023-04-03T08:06:55.351Z,6.23
2023-04-03T08:09:27.483Z,6.19
2023-04-03T08:12:00.437Z,6.15
2023-04-03T08:14:35.560Z,6.16
2023-04-03T08:17:10.550Z,6.20
2023-04-03T08:19:43.251Z,6.16
2023-04-03T08:22:15.355Z,6.12
2023-04-03T08:24:58.518Z,6.19
2023-04-03T08:27:34.455Z,6.30
2023-04-03T08:30:07.984Z,6.28
2023-04-03T08:32:40.367Z,6.27
2023-04-03T08:35:13.304Z,6.33
2023-04-03T08:37:45.683Z,6.35
2023-04-03T08:40:19.463Z,6.35
2023-04-03T08:43:05.069Z,6.43
2023-04-03T08:45:45.768Z,6.55
2023-04-03T08:48:22.830Z,6.55
2023-04-03T08:50:58.928Z,6.59
2023-04-03T08:53:33.609Z,6.63
2023-04-03T08:56:10.834Z,6.77
2023-04-03T08:58:50.229Z,6.77
2023-04-03T09:01:27.712Z,6.70
2023-04-03T09:04:00.083Z,6.78
2023-04-03T09:06:35.179Z,7.04
2023-04-03T09:09:16.145Z,7.31
2023-04-03T09:11:59.934Z,7.54
2023-04-03T09:14:39.457Z,7.28
2023-04-03T09:17:23.717Z,6.96
2023-04-03T09:20:05.236Z,6.58
2023-04-03T09:22:45.696Z,6.33
2023-04-03T09:25:26.081Z,6.02
2023-04-03T09:27:58.908Z,5.73
2023-04-03T09:30:31.746Z,5.67
2023-04-03T09:33:04.007Z,5.72
2023-04-03T09:35:47.442Z,5.94
2023-04-03T09:38:22.973Z,6.41
2023-04-03T09:41:09.047Z,6.90
2023-04-03T09:43:53.975Z,7.42
2023-04-03T09:46:36.226Z,7.72
2023-04-03T09:49:13.530Z,7.56
2023-04-03T09:51:46.408Z,7.35
2023-04-03T09:54:44.012Z,7.07
2023-04-03T09:57:17.141Z,6.77
2023-04-03T10:00:00.495Z,6.68
2023-04-03T10:02:41.321Z,6.36
2023-04-03T10:05:31.962Z,6.27
2023-04-03T10:08:24.716Z,6.46
2023-04-03T10:11:20.965Z,6.83
2023-04-03T10:14:00.649Z,7.32
2023-04-03T10:16:41.045Z,7.82
2023-04-03T10:19:44.303Z,8.05
2023-04-03T10:22:30.462Z,8.51
2023-04-03T10:25:12.861Z,8.86
2023-04-03T10:27:56.299Z,9.31
2023-04-03T10:30:39.372Z,9.85
2023-04-03T10:33:23.113Z,10.34
2023-04-03T10:36:10.646Z,10.24
2023-04-03T10:38:50.991Z,9.97
2023-04-03T10:41:34.180Z,9.57
2023-04-03T10:44:20.938Z,9.10
2023-04-03T10:46:56.143Z,8.67
2023-04-03T10:49:50.005Z,8.81
2023-04-03T10:52:30.143Z,9.02
2023-04-03T10:55:09.914Z,9.31
2023-04-03T10:57:43.744Z,9.92
2023-04-03T11:00:23.616Z,10.48
2023-04-03T11:03:00.187Z,10.54
2023-04-03T11:05:39.141Z,10.08
2023-04-03T11:08:19.806Z,9.63
2023-04-03T11:10:54.918Z,9.60
2023-04-03T11:13:35.418Z,10.03
2023-04-03T11:16:08.893Z,10.55
2023-04-03T11:18:46.140Z,10.46
2023-04-03T11:21:24.212Z,9.97
2023-04-03T11:23:59.392Z,9.26
2023-04-03T11:26:37.813Z,9.13
2023-04-03T11:29:20.766Z,9.68
2023-04-03T11:32:38.221Z,9.86
2023-04-03T11:35:12.005Z,9.45
2023-04-03T11:37:48.226Z,9.19
2023-04-03T11:40:28.871Z,9.27
2023-04-03T11:43:09.566Z,9.73
2023-04-03T11:45:56.061Z,10.45
2023-04-03T11:48:54.489Z,10.59
2023-04-03T11:51:55.367Z,10.25
2023-04-03T11:54:48.045Z,9.76
2023-04-03T11:58:04.286Z,9.80
2023-04-03T12:00:55.355Z,9.55
2023-04-03T12:04:04.265Z,9.28
2023-04-03T12:07:00.872Z,8.91
2023-04-03T12:10:05.704Z,9.09
2023-04-03T12:12:41.914Z,10.09
2023-04-03T12:19:05.155Z,10.58
2023-04-03T12:22:11.034Z,12.04
2023-04-03T12:24:45.195Z,12.99
2023-04-03T12:27:41.291Z,12.61
2023-04-03T12:30:28.910Z,12.89
2023-04-03T12:33:26.642Z,12.88
2023-04-03T12:36:13.875Z,12.26
2023-04-03T12:39:13.633Z,11.44
2023-04-03T12:41:55.179Z,12.56
2023-04-03T12:44:50.482Z,14.20
2023-04-03T12:47:29.096Z,13.38
2023-04-03T12:50:01.898Z,13.64
2023-04-03T12:52:42.069Z,14.78
2023-04-03T12:55:22.802Z,14.13
2023-04-03T12:57:55.021Z,13.01
2023-04-03T13:00:33.639Z,11.76
2023-04-03T13:03:08.778Z,11.48
2023-04-03T13:05:41.505Z,11.96
2023-04-03T13:08:17.191Z,12.92
2023-04-03T13:10:57.535Z,14.34
2023-04-03T13:13:29.986Z,12.93
2023-04-03T13:16:10.875Z,11.91
2023-04-03T13:18:43.368Z,12.03
2023-04-03T13:21:21.866Z,14.16
2023-04-03T13:24:11.493Z,12.97
2023-04-03T13:26:47.392Z,11.75
2023-04-03T13:29:31.586Z,12.34
2023-04-03T13:32:06.917Z,12.24
2023-04-03T13:34:45.900Z,11.18
2023-04-03T13:37:28.327Z,10.43
2023-04-03T13:40:13.201Z,9.86
2023-04-03T13:42:45.913Z,10.83
2023-04-03T13:45:25.106Z,14.10
2023-04-03T13:48:20.302Z,15.67
2023-04-03T13:51:00.055Z,14.66
2023-04-03T13:53:34.724Z,13.04
2023-04-03T13:56:18.672Z,12.21
2023-04-03T13:59:00.778Z,12.29
2023-04-03T14:01:40.051Z,13.14
2023-04-03T14:04:21.415Z,12.37
2023-04-03T14:06:54.489Z,11.38
2023-04-03T14:09:29.680Z,11.00
2023-04-03T14:12:08.547Z,11.48
2023-04-03T14:14:41.314Z,13.62
2023-04-03T14:17:25.178Z,15.25
2023-04-03T14:19:59.612Z,13.91
2023-04-03T14:25:07.905Z,13.58
2023-04-03T14:27:41.726Z,15.95
2023-04-03T14:30:19.522Z,17.87
2023-04-03T14:32:52.633Z,18.51
2023-04-03T14:35:26.177Z,16.60
2023-04-03T14:37:58.797Z,14.89
2023-04-03T14:40:31.371Z,13.53
2023-04-03T14:43:03.697Z,12.45
2023-04-03T14:45:36.124Z,12.47
2023-04-03T14:48:12.303Z,12.60
2023-04-03T14:50:51.705Z,11.56
2023-04-03T14:53:38.904Z,10.73
2023-04-03T14:56:19.298Z,10.86
2023-04-03T14:58:55.455Z,12.78
2023-04-03T15:01:27.718Z,14.01
2023-04-03T15:04:00.009Z,15.11
2023-04-03T15:06:32.592Z,13.98
2023-04-03T15:09:05.492Z,12.57
2023-04-03T15:11:37.557Z,11.40
2023-04-03T15:14:11.340Z,10.50
2023-04-03T15:16:43.918Z,9.78
2023-04-03T15:19:18.429Z,9.03
2023-04-03T15:21:51.004Z,8.46
2023-04-03T15:24:23.071Z,7.98
2023-04-03T15:26:55.149Z,7.63
2023-04-03T15:29:28.179Z,7.30
2023-04-03T15:32:00.457Z,7.05
2023-04-03T15:34:33.386Z,6.85
2023-04-03T15:37:05.490Z,6.69
2023-04-03T15:39:37.740Z,6.45
2023-04-03T15:42:10.385Z,6.23
2023-04-03T15:44:42.666Z,6.05
2023-04-03T15:47:16.262Z,5.94
2023-04-03T15:49:48.567Z,5.82
2023-04-03T15:52:20.736Z,5.73
2023-04-03T15:54:53.164Z,5.67
2023-04-03T15:57:27.926Z,5.56
2023-04-03T16:00:00.332Z,5.42
2023-04-03T16:02:32.686Z,5.34
2023-04-03T16:05:05.376Z,5.26
2023-04-03T16:07:39.126Z,5.18
2023-04-03T16:10:14.977Z,5.09
2023-04-03T16:12:47.377Z,4.98
2023-04-03T16:15:19.644Z,4.94
2023-04-03T16:17:52.111Z,4.88
2023-04-03T16:20:24.645Z,4.78
2023-04-03T16:22:58.394Z,4.69
2023-04-03T16:25:32.336Z,4.61
2023-04-03T16:28:05.174Z,4.54
2023-04-03T16:30:37.611Z,4.51
2023-04-03T16:33:11.109Z,4.47
2023-04-03T16:35:44.764Z,4.41
2023-04-03T16:38:19.942Z,4.40
2023-04-03T16:40:53.682Z,4.38
2023-04-03T16:43:26.398Z,4.35
2023-04-03T16:45:59.113Z,4.29
2023-04-03T16:48:31.948Z,4.25
2023-04-03T16:51:04.442Z,4.20
2023-04-03T16:53:37.217Z,4.18
2023-04-03T16:56:09.894Z,4.15
2023-04-03T16:58:41.999Z,4.14
2023-04-03T17:01:17.039Z,4.09
2023-04-03T17:03:50.269Z,4.03
2023-04-03T17:06:24.697Z,3.98
2023-04-03T17:08:57.145Z,3.85
2023-04-03T17:14:11.192Z,3.71
2023-04-03T17:16:43.639Z,3.64
2023-04-03T17:19:19.459Z,3.62
2023-04-03T17:21:53.504Z,3.58
2023-04-03T17:24:26.297Z,3.54
2023-04-03T17:26:58.360Z,3.50
2023-04-03T17:29:30.553Z,3.46
2023-04-03T17:32:03.169Z,3.44
2023-04-03T17:34:36.931Z,3.45
2023-04-03T17:37:09.936Z,3.44
2023-04-03T17:39:42.137Z,3.42
2023-04-03T17:42:14.449Z,3.40
2023-04-03T17:44:47.068Z,3.36
2023-04-03T17:47:19.198Z,3.35
2023-04-03T17:49:51.764Z,3.33
2023-04-03T17:52:26.768Z,3.33
2023-04-03T17:54:59.040Z,3.30
2023-04-03T17:57:31.874Z,3.28
2023-04-03T18:00:07.430Z,3.24
2023-04-03T18:02:45.530Z,3.24
2023-04-03T18:05:18.210Z,3.21
2023-04-03T18:07:50.959Z,3.17
2023-04-03T18:10:24.257Z,3.15
2023-04-03T18:12:57.395Z,3.15
2023-04-03T18:15:29.551Z,3.13
2023-04-03T18:18:01.989Z,3.13
2023-04-03T18:20:34.570Z,3.13
2023-04-03T18:23:07.316Z,3.10
2023-04-03T18:25:40.807Z,3.08
2023-04-03T18:28:13.390Z,3.08
2023-04-03T18:30:46.074Z,3.07
2023-04-03T18:33:18.916Z,3.06
2023-04-03T18:35:51.629Z,3.05
2023-04-03T18:38:23.965Z,3.00
2023-04-03T18:40:56.932Z,2.97
2023-04-03T18:43:29.815Z,2.93
2023-04-03T18:46:02.395Z,2.91
2023-04-03T18:48:36.240Z,2.89
2023-04-03T18:51:09.299Z,2.88
2023-04-03T18:53:41.885Z,2.86
2023-04-03T18:56:14.397Z,2.83
2023-04-03T18:58:47.012Z,2.78
2023-04-03T19:01:20.099Z,2.72
2023-04-03T19:03:52.610Z,2.68
2023-04-03T19:06:25.270Z,2.63
2023-04-03T19:08:57.767Z,2.55
2023-04-03T19:11:31.457Z,2.49
2023-04-03T19:14:16.005Z,2.42
2023-04-03T19:16:49.468Z,2.36
2023-04-03T19:19:21.738Z,2.31
2023-04-03T19:21:54.295Z,2.26
2023-04-03T19:24:27.199Z,2.22
2023-04-03T19:26:59.625Z,2.21
2023-04-03T19:29:31.733Z,2.22
2023-04-03T19:32:04.122Z,2.22
2023-04-03T19:34:36.768Z,2.21
2023-04-03T19:37:08.876Z,2.22
2023-04-03T19:39:41.282Z,2.23
2023-04-03T19:42:14.118Z,2.24
2023-04-03T19:44:48.302Z,2.21
2023-04-03T19:47:22.462Z,2.20
2023-04-03T19:49:54.595Z,2.18
2023-04-03T19:52:26.730Z,2.19
2023-04-03T19:54:59.246Z,2.20
2023-04-03T19:57:31.610Z,2.20
2023-04-03T20:00:04.386Z,2.21
2023-04-03T20:02:43.663Z,2.18
2023-04-03T20:05:16.205Z,2.16
2023-04-03T20:07:48.784Z,2.15
2023-04-03T20:10:21.169Z,2.15
2023-04-03T20:12:53.736Z,2.11
2023-04-03T20:15:26.781Z,2.09
2023-04-03T20:18:00.000Z,2.06
2023-04-03T20:20:32.405Z,2.06
2023-04-03T20:23:04.541Z,2.07
2023-04-03T20:25:50.683Z,2.10
2023-04-03T20:28:30.198Z,2.12
2023-04-03T20:31:03.818Z,2.14
2023-04-03T20:33:37.378Z,2.11
2023-04-03T20:36:10.181Z,2.10
2023-04-03T20:38:42.419Z,2.06
2023-04-03T20:41:14.668Z,2.06
2023-04-03T20:43:47.933Z,2.03
2023-04-03T20:46:20.473Z,2.02
2023-04-03T20:48:52.858Z,2.01
2023-04-03T20:51:25.316Z,2.01
2023-04-03T20:53:58.031Z,2.00
2023-04-03T20:56:34.497Z,1.99
2023-04-03T20:59:05.482Z,1.96
2023-04-03T21:01:37.921Z,1.91
2023-04-03T21:04:17.255Z,1.92
2023-04-03T21:07:24.034Z,1.90
2023-04-03T21:10:30.685Z,1.90
2023-04-03T21:13:37.129Z,1.89
2023-04-03T21:16:06.246Z,1.87
2023-04-03T21:18:57.378Z,1.86
2023-04-03T21:21:30.313Z,1.85
2023-04-03T21:24:06.625Z,1.86
2023-04-03T21:26:41.483Z,1.85
2023-04-03T21:29:14.047Z,1.84
2023-04-03T21:31:57.978Z,1.83
2023-04-03T21:34:31.809Z,1.79
2023-04-03T21:37:06.891Z,1.77
2023-04-03T21:39:39.030Z,1.75
2023-04-03T21:42:11.368Z,1.72
2023-04-03T21:44:43.451Z,1.69
2023-04-03T21:47:16.232Z,1.65
2023-04-03T21:49:48.917Z,1.61
2023-04-03T21:52:21.203Z,1.60
2023-04-03T21:54:53.359Z,1.58
2023-04-03T21:57:25.445Z,1.55
2023-04-03T21:59:58.001Z,1.53
2023-04-03T22:02:32.510Z,1.48
2023-04-03T22:05:04.721Z,1.46
2023-04-03T22:07:37.345Z,1.39
2023-04-03T22:10:10.293Z,1.33
2023-04-03T22:12:42.410Z,1.29
2023-04-03T22:15:14.523Z,1.23
2023-04-03T22:17:46.875Z,1.16
2023-04-03T22:20:19.478Z,1.10
2023-04-03T22:22:53.769Z,1.07
2023-04-03T22:25:25.934Z,1.02
2023-04-03T22:27:58.048Z,1.00
2023-04-03T22:30:30.122Z,0.96
2023-04-03T22:33:02.273Z,0.93
2023-04-03T22:35:34.494Z,0.90
2023-04-03T22:38:06.844Z,0.90
2023-04-03T22:40:40.004Z,0.87
2023-04-03T22:43:12.518Z,0.87
2023-04-03T22:45:51.520Z,0.87
2023-04-03T22:48:24.066Z,0.86
2023-04-03T22:50:56.926Z,0.84
2023-04-03T22:53:29.392Z,0.85
2023-04-03T22:56:03.292Z,0.85
2023-04-03T22:58:35.726Z,0.84
2023-04-03T23:01:09.844Z,0.84
2023-04-03T23:03:43.648Z,0.80
2023-04-03T23:06:15.912Z,0.78
2023-04-03T23:08:48.030Z,0.77
2023-04-03T23:11:20.196Z,0.79
2023-04-03T23:13:52.324Z,0.78
2023-04-03T23:16:24.385Z,0.77
2023-04-03T23:18:56.740Z,0.75
2023-04-03T23:21:29.004Z,0.72
2023-04-03T23:24:01.580Z,0.69
2023-04-03T23:26:33.637Z,0.65
2023-04-03T23:29:06.301Z,0.61
2023-04-03T23:31:38.609Z,0.58
2023-04-03T23:34:10.689Z,0.53
2023-04-03T23:36:43.268Z,0.48
2023-04-03T23:39:15.522Z,0.45
2023-04-03T23:41:49.046Z,0.42
2023-04-03T23:44:21.575Z,0.37
2023-04-03T23:46:53.625Z,0.34
2023-04-03T23:49:26.104Z,0.30
2023-04-03T23:51:58.439Z,0.29
2023-04-03T23:54:31.617Z,0.27
2023-04-03T23:57:03.680Z,0.25
2023-04-03T23:59:36.019Z,0.22
